sensor_id;sensor_type;location;lat;lon;timestamp;pressure;altitude;pressure_sealevel;temperature;humidity
1401;BME280;46518;48.842;8.926;2023-03-25T00:00:23;96509.75;;;7.38;100.00
1401;BME280;46518;48.842;8.926;2023-03-25T00:02:51;96531.56;;;7.44;100.00
1401;BME280;46518;48.842;8.926;2023-03-25T00:05:20;96539.41;;;7.44;100.00
1401;BME280;46518;48.842;8.926;2023-03-25T00:07:50;96529.69;;;7.39;100.00
1401;BME280;46518;48.842;8.926;2023-03-25T00:10:19;96527.22;;;7.32;100.00
1401;BME280;46518;48.842;8.926;2023-03-25T00:12:47;96528.88;;;7.39;100.00
1401;BME280;46518;48.842;8.926;2023-03-25T00:15:15;96528.09;;;7.38;100.00
1401;BME280;46518;48.842;8.926;2023-03-25T00:17:45;96525.63;;;7.48;100.00
1401;BME280;46518;48.842;8.926;2023-03-25T00:20:13;96529.03;;;7.49;100.00
1401;BME280;46518;48.842;8.926;2023-03-25T00:22:41;96521.97;;;7.49;100.00
1401;BME280;46518;48.842;8.926;2023-03-25T00:25:12;96525.69;;;7.53;100.00
1401;BME280;46518;48.842;8.926;2023-03-25T00:27:43;96519.19;;;7.56;100.00
1401;BME280;46518;48.842;8.926;2023-03-25T00:30:15;96498.66;;;7.48;100.00
1401;BME280;46518;48.842;8.926;2023-03-25T00:32:45;96515.06;;;7.60;100.00
1401;BME280;46518;48.842;8.926;2023-03-25T00:35:16;96513.16;;;7.55;100.00
1401;BME280;46518;48.842;8.926;2023-03-25T00:37:46;96517.97;;;7.64;100.00
1401;BME280;46518;48.842;8.926;2023-03-25T00:40:27;96508.56;;;7.46;100.00
1401;BME280;46518;48.842;8.926;2023-03-25T00:42:56;96506.97;;;7.62;100.00
1401;BME280;46518;48.842;8.926;2023-03-25T00:45:24;96506.44;;;7.43;100.00
1401;BME280;46518;48.842;8.926;2023-03-25T00:47:54;96495.97;;;7.43;100.00
1401;BME280;46518;48.842;8.926;2023-03-25T00:50:23;96500.25;;;7.49;100.00
1401;BME280;46518;48.842;8.926;2023-03-25T00:52:51;96481.94;;;7.32;100.00
1401;BME280;46518;48.842;8.926;2023-03-25T00:55:20;96500.34;;;7.37;100.00
1401;BME280;46518;48.842;8.926;2023-03-25T00:57:49;96492.41;;;7.32;100.00
1401;BME280;46518;48.842;8.926;2023-03-25T01:00:18;96490.50;;;7.27;99.89
1401;BME280;46518;48.842;8.926;2023-03-25T01:02:48;96485.13;;;7.34;100.00
1401;BME280;46518;48.842;8.926;2023-03-25T01:05:21;96491.06;;;7.29;99.01
1401;BME280;46518;48.842;8.926;2023-03-25T01:07:49;96491.44;;;7.21;99.17
1401;BME280;46518;48.842;8.926;2023-03-25T01:10:17;96487.03;;;7.22;99.00
1401;BME280;46518;48.842;8.926;2023-03-25T01:12:45;96497.31;;;7.28;97.80
1401;BME280;46518;48.842;8.926;2023-03-25T01:15:14;96486.91;;;7.33;96.76
1401;BME280;46518;48.842;8.926;2023-03-25T01:17:42;96487.25;;;7.37;97.58
1401;BME280;46518;48.842;8.926;2023-03-25T01:20:11;96484.00;;;7.30;97.24
1401;BME280;46518;48.842;8.926;2023-03-25T01:22:40;96480.41;;;7.36;97.73
1401;BME280;46518;48.842;8.926;2023-03-25T01:25:09;96465.69;;;7.30;96.39
1401;BME280;46518;48.842;8.926;2023-03-25T01:27:37;96460.03;;;7.38;96.04
1401;BME280;46518;48.842;8.926;2023-03-25T01:30:06;96457.47;;;7.43;95.89
1401;BME280;46518;48.842;8.926;2023-03-25T01:32:35;96470.50;;;7.38;95.34
1401;BME280;46518;48.842;8.926;2023-03-25T01:35:04;96465.19;;;7.33;96.39
1401;BME280;46518;48.842;8.926;2023-03-25T01:37:33;96471.75;;;7.35;95.23
1401;BME280;46518;48.842;8.926;2023-03-25T01:40:05;96475.09;;;7.31;95.90
1401;BME280;46518;48.842;8.926;2023-03-25T01:42:36;96475.25;;;7.41;95.09
1401;BME280;46518;48.842;8.926;2023-03-25T01:45:19;96479.94;;;7.39;95.04
1401;BME280;46518;48.842;8.926;2023-03-25T01:47:52;96475.59;;;7.28;95.87
1401;BME280;46518;48.842;8.926;2023-03-25T01:50:24;96471.94;;;7.29;95.30
1401;BME280;46518;48.842;8.926;2023-03-25T01:52:55;96474.31;;;7.30;96.16
1401;BME280;46518;48.842;8.926;2023-03-25T01:55:26;96455.81;;;7.54;95.23
1401;BME280;46518;48.842;8.926;2023-03-25T01:57:56;96456.19;;;7.46;93.92
1401;BME280;46518;48.842;8.926;2023-03-25T02:00:26;96454.41;;;7.29;94.76
1401;BME280;46518;48.842;8.926;2023-03-25T02:02:56;96454.81;;;7.21;95.01
1401;BME280;46518;48.842;8.926;2023-03-25T02:05:32;96449.69;;;7.09;95.63
1401;BME280;46518;48.842;8.926;2023-03-25T02:08:04;96443.59;;;7.43;95.02
1401;BME280;46518;48.842;8.926;2023-03-25T02:10:36;96447.34;;;7.30;94.94
1401;BME280;46518;48.842;8.926;2023-03-25T02:13:06;96450.63;;;7.20;94.74
1401;BME280;46518;48.842;8.926;2023-03-25T02:15:43;96456.06;;;7.35;94.58
1401;BME280;46518;48.842;8.926;2023-03-25T02:18:28;96456.19;;;7.46;93.61
1401;BME280;46518;48.842;8.926;2023-03-25T02:24:39;96516.03;;;7.37;98.07
1401;BME280;46518;48.842;8.926;2023-03-25T02:27:28;96538.00;;;6.57;98.60
1401;BME280;46518;48.842;8.926;2023-03-25T02:30:22;96553.81;;;5.62;100.00
1401;BME280;46518;48.842;8.926;2023-03-25T02:33:32;96568.50;;;5.22;100.00
1401;BME280;46518;48.842;8.926;2023-03-25T02:39:20;96556.75;;;4.89;100.00
1401;BME280;46518;48.842;8.926;2023-03-25T02:41:51;96558.31;;;4.78;100.00
1401;BME280;46518;48.842;8.926;2023-03-25T02:44:29;96542.22;;;4.81;100.00
1401;BME280;46518;48.842;8.926;2023-03-25T02:47:02;96536.22;;;4.81;100.00
1401;BME280;46518;48.842;8.926;2023-03-25T02:49:34;96514.69;;;4.85;100.00
1401;BME280;46518;48.842;8.926;2023-03-25T02:52:06;96503.47;;;4.96;100.00
1401;BME280;46518;48.842;8.926;2023-03-25T02:54:40;96496.69;;;4.95;100.00
1401;BME280;46518;48.842;8.926;2023-03-25T02:57:13;96488.78;;;5.02;100.00
1401;BME280;46518;48.842;8.926;2023-03-25T02:59:44;96479.47;;;5.06;100.00
1401;BME280;46518;48.842;8.926;2023-03-25T03:02:16;96477.22;;;5.10;100.00
1401;BME280;46518;48.842;8.926;2023-03-25T03:04:47;96468.03;;;5.07;100.00
1401;BME280;46518;48.842;8.926;2023-03-25T03:07:20;96473.69;;;5.16;100.00
1401;BME280;46518;48.842;8.926;2023-03-25T03:09:57;96459.59;;;4.93;100.00
1401;BME280;46518;48.842;8.926;2023-03-25T03:12:48;96447.72;;;5.21;100.00
1401;BME280;46518;48.842;8.926;2023-03-25T03:15:26;96450.09;;;4.99;100.00
1401;BME280;46518;48.842;8.926;2023-03-25T03:18:07;96456.78;;;5.18;100.00
1401;BME280;46518;48.842;8.926;2023-03-25T03:20:43;96459.66;;;5.17;100.00
1401;BME280;46518;48.842;8.926;2023-03-25T03:23:21;96451.69;;;5.24;100.00
1401;BME280;46518;48.842;8.926;2023-03-25T03:25:55;96458.72;;;5.35;100.00
1401;BME280;46518;48.842;8.926;2023-03-25T03:28:30;96467.56;;;5.34;100.00
1401;BME280;46518;48.842;8.926;2023-03-25T03:31:03;96473.03;;;5.32;100.00
1401;BME280;46518;48.842;8.926;2023-03-25T03:33:37;96472.78;;;5.46;100.00
1401;BME280;46518;48.842;8.926;2023-03-25T03:36:08;96477.78;;;5.47;100.00
1401;BME280;46518;48.842;8.926;2023-03-25T03:38:42;96476.63;;;5.43;100.00
1401;BME280;46518;48.842;8.926;2023-03-25T03:41:17;96475.81;;;5.66;100.00
1401;BME280;46518;48.842;8.926;2023-03-25T03:43:48;96489.44;;;5.56;100.00
1401;BME280;46518;48.842;8.926;2023-03-25T03:46:21;96489.78;;;5.72;100.00
1401;BME280;46518;48.842;8.926;2023-03-25T03:48:53;96484.69;;;5.65;100.00
1401;BME280;46518;48.842;8.926;2023-03-25T03:51:26;96496.69;;;5.66;100.00
1401;BME280;46518;48.842;8.926;2023-03-25T03:53:59;96497.94;;;5.75;100.00
1401;BME280;46518;48.842;8.926;2023-03-25T03:56:32;96493.50;;;5.88;100.00
1401;BME280;46518;48.842;8.926;2023-03-25T03:59:06;96499.50;;;5.88;100.00
1401;BME280;46518;48.842;8.926;2023-03-25T04:01:40;96504.75;;;5.88;100.00
1401;BME280;46518;48.842;8.926;2023-03-25T04:04:14;96510.75;;;5.89;100.00
1401;BME280;46518;48.842;8.926;2023-03-25T04:06:49;96515.97;;;5.89;100.00
1401;BME280;46518;48.842;8.926;2023-03-25T04:09:24;96528.59;;;5.92;100.00
1401;BME280;46518;48.842;8.926;2023-03-25T04:12:04;96528.59;;;5.92;100.00
1401;BME280;46518;48.842;8.926;2023-03-25T04:14:36;96522.00;;;5.89;100.00
1401;BME280;46518;48.842;8.926;2023-03-25T04:17:05;96524.28;;;5.86;100.00
1401;BME280;46518;48.842;8.926;2023-03-25T04:19:33;96521.66;;;5.86;100.00
1401;BME280;46518;48.842;8.926;2023-03-25T04:22:04;96520.19;;;5.90;100.00
1401;BME280;46518;48.842;8.926;2023-03-25T04:24:32;96525.63;;;5.88;100.00
1401;BME280;46518;48.842;8.926;2023-03-25T04:27:05;96532.00;;;5.92;100.00
1401;BME280;46518;48.842;8.926;2023-03-25T04:29:35;96535.97;;;6.07;100.00
1401;BME280;46518;48.842;8.926;2023-03-25T04:32:06;96543.94;;;6.00;100.00
1401;BME280;46518;48.842;8.926;2023-03-25T04:34:35;96537.00;;;6.05;100.00
1401;BME280;46518;48.842;8.926;2023-03-25T04:37:04;96533.69;;;5.98;99.76
1401;BME280;46518;48.842;8.926;2023-03-25T04:39:32;96521.69;;;5.97;99.48
1401;BME280;46518;48.842;8.926;2023-03-25T04:42:00;96524.38;;;5.91;98.21
1401;BME280;46518;48.842;8.926;2023-03-25T04:44:31;96531.63;;;5.89;99.45
1401;BME280;46518;48.842;8.926;2023-03-25T04:47:06;96535.63;;;6.15;98.86
1401;BME280;46518;48.842;8.926;2023-03-25T04:49:34;96534.06;;;6.02;96.64
1401;BME280;46518;48.842;8.926;2023-03-25T04:52:03;96535.97;;;5.83;98.31
1401;BME280;46518;48.842;8.926;2023-03-25T04:54:32;96535.50;;;5.86;98.73
1401;BME280;46518;48.842;8.926;2023-03-25T04:57:00;96531.44;;;6.02;96.96
1401;BME280;46518;48.842;8.926;2023-03-25T04:59:28;96555.97;;;5.89;97.59
1401;BME280;46518;48.842;8.926;2023-03-25T05:01:58;96563.69;;;6.08;97.11
1401;BME280;46518;48.842;8.926;2023-03-25T05:04:28;96545.97;;;5.98;96.67
1401;BME280;46518;48.842;8.926;2023-03-25T05:06:56;96556.97;;;6.12;95.90
1401;BME280;46518;48.842;8.926;2023-03-25T05:09:24;96552.97;;;6.21;93.83
1401;BME280;46518;48.842;8.926;2023-03-25T05:11:53;96544.03;;;6.17;93.90
1401;BME280;46518;48.842;8.926;2023-03-25T05:14:21;96557.94;;;6.34;92.08
1401;BME280;46518;48.842;8.926;2023-03-25T05:16:50;96560.56;;;6.34;92.88
1401;BME280;46518;48.842;8.926;2023-03-25T05:19:19;96555.97;;;6.41;92.56
1401;BME280;46518;48.842;8.926;2023-03-25T05:21:48;96554.03;;;6.48;93.42
1401;BME280;46518;48.842;8.926;2023-03-25T05:24:16;96560.50;;;6.46;92.72
1401;BME280;46518;48.842;8.926;2023-03-25T05:26:45;96560.31;;;6.36;92.90
1401;BME280;46518;48.842;8.926;2023-03-25T05:29:14;96552.72;;;6.34;92.63
1401;BME280;46518;48.842;8.926;2023-03-25T05:31:44;96561.00;;;6.31;91.87
1401;BME280;46518;48.842;8.926;2023-03-25T05:34:14;96564.75;;;6.35;92.32
1401;BME280;46518;48.842;8.926;2023-03-25T05:36:45;96558.06;;;6.28;91.37
1401;BME280;46518;48.842;8.926;2023-03-25T05:39:13;96555.44;;;6.39;91.41
1401;BME280;46518;48.842;8.926;2023-03-25T05:41:42;96563.13;;;6.46;91.22
1401;BME280;46518;48.842;8.926;2023-03-25T05:44:11;96558.72;;;6.46;89.91
1401;BME280;46518;48.842;8.926;2023-03-25T05:46:41;96562.22;;;6.52;90.21
1401;BME280;46518;48.842;8.926;2023-03-25T05:49:10;96560.94;;;6.55;90.11
1401;BME280;46518;48.842;8.926;2023-03-25T05:51:38;96557.22;;;6.51;89.06
1401;BME280;46518;48.842;8.926;2023-03-25T05:54:08;96556.72;;;6.54;90.29
1401;BME280;46518;48.842;8.926;2023-03-25T05:56:37;96555.72;;;6.55;89.18
1401;BME280;46518;48.842;8.926;2023-03-25T05:59:06;96558.09;;;6.56;88.80
1401;BME280;46518;48.842;8.926;2023-03-25T06:01:36;96555.91;;;6.65;86.91
1401;BME280;46518;48.842;8.926;2023-03-25T06:04:04;96552.25;;;6.66;88.09
1401;BME280;46518;48.842;8.926;2023-03-25T06:06:36;96558.47;;;6.77;87.80
1401;BME280;46518;48.842;8.926;2023-03-25T06:09:07;96555.63;;;6.78;88.07
1401;BME280;46518;48.842;8.926;2023-03-25T06:11:36;96565.84;;;6.80;89.33
1401;BME280;46518;48.842;8.926;2023-03-25T06:14:05;96579.31;;;6.72;89.94
1401;BME280;46518;48.842;8.926;2023-03-25T06:16:34;96578.56;;;6.88;90.59
1401;BME280;46518;48.842;8.926;2023-03-25T06:19:02;96588.09;;;6.94;90.46
1401;BME280;46518;48.842;8.926;2023-03-25T06:21:33;96572.13;;;6.96;90.79
1401;BME280;46518;48.842;8.926;2023-03-25T06:24:02;96574.91;;;6.89;91.25
1401;BME280;46518;48.842;8.926;2023-03-25T06:26:31;96575.16;;;6.87;90.51
1401;BME280;46518;48.842;8.926;2023-03-25T06:29:00;96568.78;;;6.83;90.26
1401;BME280;46518;48.842;8.926;2023-03-25T06:31:37;96586.66;;;7.03;89.79
1401;BME280;46518;48.842;8.926;2023-03-25T06:34:05;96572.09;;;7.07;89.65
1401;BME280;46518;48.842;8.926;2023-03-25T06:36:33;96574.72;;;7.24;88.84
1401;BME280;46518;48.842;8.926;2023-03-25T06:39:02;96583.47;;;7.30;89.35
1401;BME280;46518;48.842;8.926;2023-03-25T06:41:33;96583.47;;;7.30;89.25
1401;BME280;46518;48.842;8.926;2023-03-25T06:44:23;96573.53;;;7.32;89.03
1401;BME280;46518;48.842;8.926;2023-03-25T06:47:03;96577.91;;;7.26;88.75
1401;BME280;46518;48.842;8.926;2023-03-25T06:49:43;96575.28;;;7.26;89.79
1401;BME280;46518;48.842;8.926;2023-03-25T06:52:11;96573.78;;;7.30;90.84
1401;BME280;46518;48.842;8.926;2023-03-25T06:54:39;96570.59;;;7.28;89.93
1401;BME280;46518;48.842;8.926;2023-03-25T06:57:09;96576.97;;;7.49;90.58
1401;BME280;46518;48.842;8.926;2023-03-25T06:59:37;96568.00;;;7.45;89.13
1401;BME280;46518;48.842;8.926;2023-03-25T07:02:05;96570.84;;;7.44;89.45
1401;BME280;46518;48.842;8.926;2023-03-25T07:04:34;96581.22;;;7.72;90.57
1401;BME280;46518;48.842;8.926;2023-03-25T07:07:02;96569.19;;;7.71;88.98
1401;BME280;46518;48.842;8.926;2023-03-25T07:09:30;96575.56;;;7.81;88.75
1401;BME280;46518;48.842;8.926;2023-03-25T07:11:58;96578.22;;;7.47;87.93
1401;BME280;46518;48.842;8.926;2023-03-25T07:14:28;96578.88;;;7.54;88.25
1401;BME280;46518;48.842;8.926;2023-03-25T07:16:56;96580.09;;;7.68;88.88
1401;BME280;46518;48.842;8.926;2023-03-25T07:19:24;96574.22;;;7.78;87.24
1401;BME280;46518;48.842;8.926;2023-03-25T07:21:52;96567.91;;;7.74;87.20
1401;BME280;46518;48.842;8.926;2023-03-25T07:24:21;96561.00;;;7.68;89.03
1401;BME280;46518;48.842;8.926;2023-03-25T07:26:49;96563.53;;;7.80;89.19
1401;BME280;46518;48.842;8.926;2023-03-25T07:29:20;96557.16;;;7.92;87.92
1401;BME280;46518;48.842;8.926;2023-03-25T07:31:50;96554.81;;;7.96;88.48
1401;BME280;46518;48.842;8.926;2023-03-25T07:34:18;96559.91;;;8.03;87.63
1401;BME280;46518;48.842;8.926;2023-03-25T07:36:47;96562.88;;;7.89;89.26
1401;BME280;46518;48.842;8.926;2023-03-25T07:39:15;96557.25;;;7.81;89.04
1401;BME280;46518;48.842;8.926;2023-03-25T07:41:44;96558.19;;;8.13;89.06
1401;BME280;46518;48.842;8.926;2023-03-25T07:44:30;96557.63;;;7.89;88.96
1401;BME280;46518;48.842;8.926;2023-03-25T07:47:00;96576.19;;;7.88;90.49
1401;BME280;46518;48.842;8.926;2023-03-25T07:49:31;96563.50;;;7.96;91.03
1401;BME280;46518;48.842;8.926;2023-03-25T07:51:59;96574.34;;;8.05;90.99
1401;BME280;46518;48.842;8.926;2023-03-25T07:54:27;96555.94;;;8.00;90.33
1401;BME280;46518;48.842;8.926;2023-03-25T07:56:55;96554.00;;;8.12;90.62
1401;BME280;46518;48.842;8.926;2023-03-25T07:59:24;96558.53;;;8.39;90.15
1401;BME280;46518;48.842;8.926;2023-03-25T08:01:55;96560.59;;;8.37;89.54
1401;BME280;46518;48.842;8.926;2023-03-25T08:04:25;96552.97;;;8.35;89.29
1401;BME280;46518;48.842;8.926;2023-03-25T08:06:53;96545.91;;;8.58;89.59
1401;BME280;46518;48.842;8.926;2023-03-25T08:09:22;96556.81;;;8.72;90.09
1401;BME280;46518;48.842;8.926;2023-03-25T08:11:50;96567.59;;;8.75;89.77
1401;BME280;46518;48.842;8.926;2023-03-25T08:14:18;96554.56;;;8.58;86.42
1401;BME280;46518;48.842;8.926;2023-03-25T08:16:46;96556.44;;;8.63;86.56
1401;BME280;46518;48.842;8.926;2023-03-25T08:19:14;96562.84;;;8.72;85.53
1401;BME280;46518;48.842;8.926;2023-03-25T08:21:44;96571.00;;;8.76;85.16
1401;BME280;46518;48.842;8.926;2023-03-25T08:24:12;96560.69;;;8.91;83.04
1401;BME280;46518;48.842;8.926;2023-03-25T08:26:41;96558.94;;;8.75;83.09
1401;BME280;46518;48.842;8.926;2023-03-25T08:29:09;96571.41;;;8.90;82.13
1401;BME280;46518;48.842;8.926;2023-03-25T08:31:38;96570.47;;;8.74;81.77
1401;BME280;46518;48.842;8.926;2023-03-25T08:34:06;96573.69;;;8.37;86.04
1401;BME280;46518;48.842;8.926;2023-03-25T08:36:34;96595.88;;;8.07;91.50
1401;BME280;46518;48.842;8.926;2023-03-25T08:39:06;96595.44;;;8.15;92.66
1401;BME280;46518;48.842;8.926;2023-03-25T08:41:38;96598.09;;;7.98;98.31
1401;BME280;46518;48.842;8.926;2023-03-25T08:44:06;96604.00;;;7.89;98.23
1401;BME280;46518;48.842;8.926;2023-03-25T08:46:35;96598.13;;;7.82;99.06
1401;BME280;46518;48.842;8.926;2023-03-25T08:49:04;96590.84;;;7.67;100.00
1401;BME280;46518;48.842;8.926;2023-03-25T08:51:33;96607.28;;;7.79;100.00
1401;BME280;46518;48.842;8.926;2023-03-25T08:54:01;96606.22;;;7.80;100.00
1401;BME280;46518;48.842;8.926;2023-03-25T08:56:32;96590.34;;;7.70;100.00
1401;BME280;46518;48.842;8.926;2023-03-25T08:59:00;96591.31;;;7.47;100.00
1401;BME280;46518;48.842;8.926;2023-03-25T09:01:28;96590.25;;;7.31;100.00
1401;BME280;46518;48.842;8.926;2023-03-25T09:03:58;96588.22;;;7.50;100.00
1401;BME280;46518;48.842;8.926;2023-03-25T09:06:26;96583.47;;;7.47;100.00
1401;BME280;46518;48.842;8.926;2023-03-25T09:09:14;96593.94;;;7.47;100.00
1401;BME280;46518;48.842;8.926;2023-03-25T09:11:43;96586.00;;;7.42;100.00
1401;BME280;46518;48.842;8.926;2023-03-25T09:14:11;96591.78;;;7.61;100.00
1401;BME280;46518;48.842;8.926;2023-03-25T09:16:40;96583.94;;;7.61;100.00
1401;BME280;46518;48.842;8.926;2023-03-25T09:19:09;96581.84;;;7.80;100.00
1401;BME280;46518;48.842;8.926;2023-03-25T09:21:38;96584.25;;;7.64;100.00
1401;BME280;46518;48.842;8.926;2023-03-25T09:24:07;96570.59;;;7.62;100.00
1401;BME280;46518;48.842;8.926;2023-03-25T09:26:36;96583.97;;;7.99;100.00
1401;BME280;46518;48.842;8.926;2023-03-25T09:29:05;96577.47;;;8.02;100.00
1401;BME280;46518;48.842;8.926;2023-03-25T09:31:33;96584.97;;;8.15;100.00
1401;BME280;46518;48.842;8.926;2023-03-25T09:34:02;96570.56;;;8.18;100.00
1401;BME280;46518;48.842;8.926;2023-03-25T09:36:30;96568.75;;;7.96;99.06
1401;BME280;46518;48.842;8.926;2023-03-25T09:38:58;96578.50;;;8.23;100.00
1401;BME280;46518;48.842;8.926;2023-03-25T09:41:40;96570.97;;;8.27;98.65
1401;BME280;46518;48.842;8.926;2023-03-25T09:44:18;96583.56;;;8.47;98.46
1401;BME280;46518;48.842;8.926;2023-03-25T09:46:48;96582.78;;;8.73;100.00
1401;BME280;46518;48.842;8.926;2023-03-25T09:49:19;96581.75;;;8.74;98.08
1401;BME280;46518;48.842;8.926;2023-03-25T09:51:50;96572.53;;;8.94;97.55
1401;BME280;46518;48.842;8.926;2023-03-25T09:54:22;96571.97;;;8.92;93.70
1401;BME280;46518;48.842;8.926;2023-03-25T09:56:54;96569.28;;;9.14;97.95
1401;BME280;46518;48.842;8.926;2023-03-25T09:59:36;96576.13;;;9.15;96.31
1401;BME280;46518;48.842;8.926;2023-03-25T10:02:22;96565.19;;;9.28;93.33
1401;BME280;46518;48.842;8.926;2023-03-25T10:05:10;96576.78;;;9.32;91.90
1401;BME280;46518;48.842;8.926;2023-03-25T10:07:52;96575.41;;;9.57;92.43
1401;BME280;46518;48.842;8.926;2023-03-25T10:10:28;96564.88;;;9.94;96.19
1401;BME280;46518;48.842;8.926;2023-03-25T10:13:06;96561.38;;;9.83;86.85
1401;BME280;46518;48.842;8.926;2023-03-25T10:15:43;96570.84;;;9.79;87.20
1401;BME280;46518;48.842;8.926;2023-03-25T10:18:26;96572.03;;;9.99;92.58
1401;BME280;46518;48.842;8.926;2023-03-25T10:21:02;96570.09;;;9.84;88.75
1401;BME280;46518;48.842;8.926;2023-03-25T10:23:36;96571.59;;;9.37;84.64
1401;BME280;46518;48.842;8.926;2023-03-25T10:26:10;96583.34;;;9.29;87.06
1401;BME280;46518;48.842;8.926;2023-03-25T10:28:45;96575.03;;;9.11;87.58
1401;BME280;46518;48.842;8.926;2023-03-25T10:31:19;96574.94;;;9.00;83.94
1401;BME280;46518;48.842;8.926;2023-03-25T10:33:52;96577.97;;;9.14;89.93
1401;BME280;46518;48.842;8.926;2023-03-25T10:36:27;96589.94;;;9.05;87.61
1401;BME280;46518;48.842;8.926;2023-03-25T10:38:59;96589.69;;;9.06;89.10
1401;BME280;46518;48.842;8.926;2023-03-25T10:41:32;96596.25;;;9.04;85.00
1401;BME280;46518;48.842;8.926;2023-03-25T10:44:07;96576.25;;;9.30;83.08
1401;BME280;46518;48.842;8.926;2023-03-25T10:46:40;96571.69;;;9.53;83.52
1401;BME280;46518;48.842;8.926;2023-03-25T10:49:18;96565.75;;;9.67;79.99
1401;BME280;46518;48.842;8.926;2023-03-25T10:51:49;96560.50;;;9.67;77.67
1401;BME280;46518;48.842;8.926;2023-03-25T10:54:20;96599.69;;;9.69;79.14
1401;BME280;46518;48.842;8.926;2023-03-25T10:56:50;96604.09;;;9.63;79.21
1401;BME280;46518;48.842;8.926;2023-03-25T10:59:23;96564.63;;;9.58;79.01
1401;BME280;46518;48.842;8.926;2023-03-25T11:01:58;96564.81;;;9.79;80.10
1401;BME280;46518;48.842;8.926;2023-03-25T11:04:31;96552.50;;;9.89;79.29
1401;BME280;46518;48.842;8.926;2023-03-25T11:07:01;96562.53;;;9.98;80.33
1401;BME280;46518;48.842;8.926;2023-03-25T11:09:31;96547.78;;;9.91;78.08
1401;BME280;46518;48.842;8.926;2023-03-25T11:12:04;96557.91;;;9.72;77.38
1401;BME280;46518;48.842;8.926;2023-03-25T11:14:36;96573.50;;;9.84;80.43
1401;BME280;46518;48.842;8.926;2023-03-25T11:17:13;96558.25;;;9.81;76.76
1401;BME280;46518;48.842;8.926;2023-03-25T11:19:46;96554.66;;;9.98;77.16
1401;BME280;46518;48.842;8.926;2023-03-25T11:22:22;96567.28;;;10.01;74.92
1401;BME280;46518;48.842;8.926;2023-03-25T11:24:57;96531.25;;;9.96;76.25
1401;BME280;46518;48.842;8.926;2023-03-25T11:27:28;96557.88;;;10.10;76.66
1401;BME280;46518;48.842;8.926;2023-03-25T11:30:00;96537.22;;;10.29;74.90
1401;BME280;46518;48.842;8.926;2023-03-25T11:32:33;96543.84;;;10.47;73.13
1401;BME280;46518;48.842;8.926;2023-03-25T11:35:08;96535.94;;;10.42;74.36
1401;BME280;46518;48.842;8.926;2023-03-25T11:37:43;96539.19;;;10.74;75.29
1401;BME280;46518;48.842;8.926;2023-03-25T11:40:14;96538.06;;;10.50;73.90
1401;BME280;46518;48.842;8.926;2023-03-25T11:42:44;96565.50;;;10.69;74.20
1401;BME280;46518;48.842;8.926;2023-03-25T11:45:20;96535.44;;;10.50;71.53
1401;BME280;46518;48.842;8.926;2023-03-25T11:47:51;96559.88;;;10.40;73.16
1401;BME280;46518;48.842;8.926;2023-03-25T11:50:22;96552.13;;;10.23;74.51
1401;BME280;46518;48.842;8.926;2023-03-25T11:52:53;96581.34;;;10.22;76.08
1401;BME280;46518;48.842;8.926;2023-03-25T11:55:23;96565.94;;;9.98;76.82
1401;BME280;46518;48.842;8.926;2023-03-25T11:57:54;96565.75;;;10.10;77.85
1401;BME280;46518;48.842;8.926;2023-03-25T12:00:36;96573.66;;;10.10;78.51
1401;BME280;46518;48.842;8.926;2023-03-25T12:03:17;96560.22;;;10.06;78.44
1401;BME280;46518;48.842;8.926;2023-03-25T12:05:59;96558.19;;;10.19;77.57
1401;BME280;46518;48.842;8.926;2023-03-25T12:08:29;96549.59;;;10.33;78.12
1401;BME280;46518;48.842;8.926;2023-03-25T12:11:01;96570.16;;;10.42;77.19
1401;BME280;46518;48.842;8.926;2023-03-25T12:17:21;96567.53;;;10.47;75.89
1401;BME280;46518;48.842;8.926;2023-03-25T12:20:00;96564.75;;;10.16;77.59
1401;BME280;46518;48.842;8.926;2023-03-25T12:22:45;96580.31;;;9.80;79.00
1401;BME280;46518;48.842;8.926;2023-03-25T12:25:31;96593.28;;;9.60;79.59
1401;BME280;46518;48.842;8.926;2023-03-25T12:28:28;96611.38;;;8.97;84.54
1401;BME280;46518;48.842;8.926;2023-03-25T12:31:04;96613.91;;;8.64;92.01
1401;BME280;46518;48.842;8.926;2023-03-25T12:33:46;96628.50;;;8.38;95.53
1401;BME280;46518;48.842;8.926;2023-03-25T12:36:27;96626.81;;;8.27;100.00
1401;BME280;46518;48.842;8.926;2023-03-25T12:39:12;96600.69;;;8.54;100.00
1401;BME280;46518;48.842;8.926;2023-03-25T12:41:47;96619.88;;;8.82;98.73
1401;BME280;46518;48.842;8.926;2023-03-25T12:44:36;96591.03;;;9.09;98.64
1401;BME280;46518;48.842;8.926;2023-03-25T12:47:15;96585.81;;;9.41;93.04
1401;BME280;46518;48.842;8.926;2023-03-25T12:50:20;96593.88;;;9.67;91.76
1401;BME280;46518;48.842;8.926;2023-03-25T12:52:55;96584.19;;;9.72;88.19
1401;BME280;46518;48.842;8.926;2023-03-25T12:55:47;96587.84;;;9.66;85.50
1401;BME280;46518;48.842;8.926;2023-03-25T13:01:21;96581.69;;;9.93;88.73
1401;BME280;46518;48.842;8.926;2023-03-25T13:04:03;96588.44;;;10.21;87.64
1401;BME280;46518;48.842;8.926;2023-03-25T13:06:40;96580.00;;;10.19;85.48
1401;BME280;46518;48.842;8.926;2023-03-25T13:09:15;96579.38;;;10.49;84.12
1401;BME280;46518;48.842;8.926;2023-03-25T13:11:49;96584.72;;;10.70;84.77
1401;BME280;46518;48.842;8.926;2023-03-25T13:14:23;96592.34;;;10.71;83.24
1401;BME280;46518;48.842;8.926;2023-03-25T13:16:56;96596.34;;;10.89;80.58
1401;BME280;46518;48.842;8.926;2023-03-25T13:19:28;96599.19;;;10.72;80.46
1401;BME280;46518;48.842;8.926;2023-03-25T13:22:00;96610.75;;;10.66;80.90
1401;BME280;46518;48.842;8.926;2023-03-25T13:24:36;96596.88;;;10.91;82.13
1401;BME280;46518;48.842;8.926;2023-03-25T13:27:05;96592.06;;;10.68;79.63
1401;BME280;46518;48.842;8.926;2023-03-25T13:29:37;96592.81;;;10.58;78.73
1401;BME280;46518;48.842;8.926;2023-03-25T13:32:16;96581.47;;;10.47;77.58
1401;BME280;46518;48.842;8.926;2023-03-25T13:34:49;96565.75;;;10.73;78.53
1401;BME280;46518;48.842;8.926;2023-03-25T13:37:22;96562.38;;;10.93;77.81
1401;BME280;46518;48.842;8.926;2023-03-25T13:40:02;96548.72;;;11.01;77.35
1401;BME280;46518;48.842;8.926;2023-03-25T13:42:45;96547.91;;;11.00;76.30
1401;BME280;46518;48.842;8.926;2023-03-25T13:45:18;96570.59;;;11.22;75.87
1401;BME280;46518;48.842;8.926;2023-03-25T13:47:51;96571.31;;;10.82;69.22
1401;BME280;46518;48.842;8.926;2023-03-25T13:50:25;96583.19;;;10.89;71.23
1401;BME280;46518;48.842;8.926;2023-03-25T13:52:59;96593.34;;;10.60;70.58
1401;BME280;46518;48.842;8.926;2023-03-25T13:55:35;96610.63;;;10.41;71.78
1401;BME280;46518;48.842;8.926;2023-03-25T13:58:17;96628.81;;;10.05;74.86